Monday, December 17, 2018, 11:36 AM EST
Back to Local

KEEN, Keene, Dillant-hopkins Airport

Location: Keene, NH, United States Lat: 42.9
Local Time: 11:36 AM EST (16:36 GMT) Lon: -72.267
Time Zone: US/Eastern Elev: 488 ft

Show me the last for .
Show Decoded

2018-12-17 10:56 METAR KEEN 171556Z AUTO 16003KT 10SM SCT006 OVC020 01/00 A2962 RMK AO2 SLP049
                 T00110000 FZRANO $ =
2018-12-17 10:41 METAR KEEN 171541Z AUTO 20003KT 10SM SCT006 OVC022 01/01 A2963 RMK AO2 FZRANO $
                 =
2018-12-17 09:56 METAR KEEN 171456Z AUTO 00000KT 10SM OVC026 01/00 A2965 RMK AO2 SLP063 60000
                 T00110000 58017 FZRANO $ =
2018-12-17 08:56 METAR KEEN 171356Z AUTO 00000KT 10SM OVC028 01/00 A2968 RMK AO2
                 UPB08E18RAB18E26SNE08 SLP071 P0000 T00060000 FZRANO $ =
2018-12-17 08:11 METAR KEEN 171311Z AUTO 00000KT 6SM UP BR FEW007 BKN034 OVC050 01/00 A2969 RMK
                 AO2 UPB08SNE08 P0000 FZRANO $ =
2018-12-17 07:56 METAR KEEN 171256Z AUTO 00000KT 2SM -SN BR FEW007 BKN034 OVC041 00/M01 A2969 RMK
                 AO2 VIS 1 1/4V4 UPB1158E53SNB53 SLP077 P0000 T00001006 FZRANO $ =
2018-12-17 07:54 METAR KEEN 171254Z AUTO 00000KT 2 1/2SM -SN BR FEW007 BKN034 OVC041 00/M01 A2969
                 RMK AO2 VIS 1 1/2V5 UPB1158E53SNB53 P0000 FZRANO $ =
2018-12-17 07:46 METAR KEEN 171246Z AUTO 00000KT 4SM UP SCT027 OVC036 00/ A2970 RMK AO2 UPB1158
                 P0000 FZRANO $ =
2018-12-17 06:56 METAR KEEN 171156Z AUTO 00000KT 10SM OVC019 00/M01 A2971 RMK AO2 SLP080 60001
                 70018 T00001006 56011 FZRANO $ =
2018-12-17 06:35 METAR KEEN 171135Z AUTO 00000KT 10SM OVC015 00/M01 A2971 RMK AO2 FZRANO $ =
2018-12-17 05:56 METAR KEEN 171056Z AUTO 36003KT 10SM OVC013 00/M01 A2971 RMK AO2 UPE18RAB18E27
                 SLP081 P0000 T00001006 FZRANO $ =
2018-12-17 05:45 METAR KEEN 171045Z AUTO 01003KT 10SM SCT005 OVC013 00/M01 A2971 RMK AO2
                 UPE18RAB18E27 P0000 FZRANO $ =
2018-12-17 04:56 METAR KEEN 170956Z AUTO 35004KT 4SM UP BR OVC005 00/M01 A2973 RMK AO2 SLP087
                 P0000 T00001006 FZRANO $ =
2018-12-17 04:24 METAR KEEN 170924Z AUTO 36005KT 6SM UP BR BKN005 BKN012 OVC016 00/M01 A2973 RMK
                 AO2 CIG 004V008 P0000 FZRANO $ =
2018-12-17 04:15 METAR KEEN 170915Z AUTO 02005KT 5SM UP BR FEW005 OVC016 00/M01 A2973 RMK AO2
                 P0000 FZRANO $ =
2018-12-17 04:07 METAR KEEN 170907Z AUTO 36004KT 6SM UP BR OVC014 00/M01 A2974 RMK AO2 P0000
                 FZRANO $ =
2018-12-17 03:56 METAR KEEN 170856Z AUTO 34006KT 8SM UP FEW005 OVC016 00/M01 A2974 RMK AO2
                 UPB19SNE19 SLP092 P0001 60001 T00001006 58013 FZRANO $ =
2018-12-17 03:21 METAR KEEN 170821Z AUTO 01004KT 3SM UP BR FEW005 BKN014 OVC048 00/M01 A2974 RMK
                 AO2 UPB19SNE19 P0000 FZRANO $ =
2018-12-17 03:09 METAR KEEN 170809Z AUTO 01004KT 2 1/2SM -SN BR BKN014 OVC046 00/M01 A2975 RMK
                 AO2 P0000 FZRANO $ =
2018-12-17 02:56 METAR KEEN 170756Z AUTO 36006KT 5SM -SN BR FEW018 OVC046 00/M01 A2975 RMK AO2
                 UPB27E45SNE27B45 SLP096 P0000 T00001006 FZRANO $ =
2018-12-17 02:45 METAR KEEN 170745Z AUTO 02004KT 9SM -SN FEW016 OVC046 01/00 A2975 RMK AO2
                 UPB27E45SNE27B45 P0000 FZRANO $ =
2018-12-17 02:12 METAR KEEN 170712Z AUTO 36006KT 6SM -SN BR FEW007 SCT011 OVC016 00/M01 A2976 RMK
                 AO2 P0000 FZRANO $ =
2018-12-17 01:56 METAR KEEN 170656Z AUTO 35006KT 4SM -SN BR BKN009 OVC017 00/M01 A2977 RMK AO2
                 UPB18E36RAB36E49SNB49 CIG 007V012 SLP101 P0000 T00001006 FZRANO $ =
2018-12-17 01:37 METAR KEEN 170637Z AUTO 36007KT 7SM -RA BKN011 OVC017 01/M01 A2977 RMK AO2
                 UPB18E36RAB36 CIG 008V013 P0000 FZRANO $ =
2018-12-17 01:30 METAR KEEN 170630Z AUTO 35008KT 6SM UP BR SCT009 OVC016 01/M01 A2977 RMK AO2
                 UPB18 P0000 FZRANO $ =
2018-12-17 00:56 METAR KEEN 170556Z AUTO 36007KT 9SM OVC014 01/M01 A2978 RMK AO2 RAE42 SLP104
                 P0000 60017 T00061006 10017 20006 58029 FZRANO $ =
2018-12-16 23:56 METAR KEEN 170456Z AUTO 36009KT 10SM -RA OVC014 01/00 A2981 RMK AO2
                 UPB28E40RAB40SNE28 SLP115 P0004 T00060000 400281056 FZRANO $ =
2018-12-16 23:22 METAR KEEN 170422Z AUTO 36007KT 7SM -SN OVC014 01/M01 A2982 RMK AO2 P0003 FZRANO
                 $ =
2018-12-16 22:56 METAR KEEN 170356Z AUTO 36006KT 7SM -SN OVC016 01/M01 A2984 RMK AO2
                 RAE30UPB00E10SNB30 SLP125 P0005 T00061006 FZRANO $ =
2018-12-16 21:56 METAR KEEN 170256Z AUTO 02005KT 9SM -RA OVC018 01/M01 A2986 RMK AO2
                 RAE15B35UPB15E35 SLP134 P0002 60008 T00111006 58020 FZRANO $ =
2018-12-16 20:56 METAR KEEN 170156Z AUTO 36008KT 10SM -RA OVC018 01/M01 A2989 RMK AO2
                 UPE54RAB54SNB21E34 SLP143 P0004 T00111006 FZRANO $ =
2018-12-16 19:56 METAR KEEN 170056Z AUTO VRB05KT 8SM UP OVC018 01/M01 A2991 RMK AO2 RAE54UPB54
                 SLP152 P0002 T00111006 FZRANO $ =
2018-12-16 18:56 METAR KEEN 162356Z AUTO 35008KT 10SM -RA OVC018 02/M01 A2992 RMK AO2
                 UPB2258E14RAB14 SLP155 P0000 60000 T00171006 10028 20017 58012 FZRANO $ =
2018-12-16 17:56 METAR KEEN 162256Z AUTO VRB06KT 10SM OVC018 02/M01 A2995 RMK AO2
                 RAB28E37UPB37E40 SLP162 P0000 T00221006 FZRANO $ =
2018-12-16 16:56 METAR KEEN 162156Z AUTO 01008KT 10SM OVC016 03/M01 A2995 RMK AO2 UPB19E52 SLP162
                 P0000 T00281006 $ =
2018-12-16 15:56 METAR KEEN 162056Z AUTO 01008KT 10SM OVC016 02/M01 A2996 RMK AO2 SLP166 60000
                 T00221006 56023 FZRANO $ =
2018-12-16 14:56 METAR KEEN 161956Z AUTO 33004KT 10SM OVC016 02/M01 A2998 RMK AO2 RAE04 SLP175
                 P0000 T00221006 FZRANO $ =
2018-12-16 13:56 METAR KEEN 161856Z AUTO 36003KT 10SM -RA OVC016 02/00 A3000 RMK AO2 RAB23 SLP179
                 P0000 T00220000 FZRANO $ =
2018-12-16 12:56 METAR KEEN 161756Z AUTO 01009KT 10SM OVC016 02/M01 A3003 RMK AO2
                 RAE1657B17E30UPB1657E1659SNB1659E17 SLP189 P0000 60000 T00221006 10022 21011
                 56044 FZRANO $ =
2018-12-16 11:56 METAR KEEN 161656Z AUTO 01009KT 10SM -RA OVC020 02/M01 A3007 RMK AO2
                 UPB36E38RAB38 SLP204 P0000 T00171011 FZRANO $ =

Support USWX by starting your Amazon purchase here.